Mitchell, SD (57301)

5:02 PM CST on December 18, 2014 (GMT -0600)
Pleasant Hills | Change Station
CLOSE
Current Station
Personal Weather Station
Location: Mitchell, SD
Elevation: 1285 ft
Nearby Weather Stations

Elev 1285 ft 43.73 °N, 98.01 °W | Updated 2 minutes ago

Overcast
Overcast
27.1 °F
Feels Like 27 °F
N
0.7
Wind Variable Wind from East
Gusts 6.0 mph

Today
High -- | Low -- °F
--% Chance of Precip.
Yesterday
High -- | Low -- °F
Precip. -- in
8:01 AM 4:56 PM
Waning Crescent, 12% visible
Pressure 30.22 in
Visibility 6.0 miles
Clouds Overcast 1200 ft
Windchill 27 °F
Dew Point 20 °F
Humidity 76%
Rainfall 0.00 in
Snow Depth Not available.
UV 0 out of 12
Pollen .10 out of 12
Air Quality Not available.
Flu Activity Not available.
METAR KMHE 182253Z AUTO 17006KT 6SM BR OVC012 M02/M04 A3016 RMK AO2 SLP232 T10221044

More Conditions Fewer Conditions

Pressure 30.22 in
Visibility 6.0 miles
Clouds Overcast 1200 ft
Windchill 27 °F
Dew Point 20 °F
Humidity 76%
Rainfall 0.00 in
Snow Depth Not available.
UV 0 out of 12
Pollen .10 out of 12
Air Quality Not available.
Flu Activity Not available.
METAR KMHE 182253Z AUTO 17006KT 6SM BR OVC012 M02/M04 A3016 RMK AO2 SLP232 T10221044

More Conditions Fewer Conditions

10-Day Weather Forecast

Almanac

Astronomy

Dec. 18, 2014 Rise Set
Actual Time
Civil Twilight
Nautical Twilight
Astronomical Twilight
Moon
Length of Visible Light
Length of Day
Tomorrow will be .
, % of the Moon is Illuminated

Today's Extremes

State Highs State Lows

Community

WunderPhotos

Upload Photos

1,779,014 photos uploaded!

WunderBlogs® & News

Nearby

Air Quality

  Air Quality AQ Index Pollutant
Not available.

Snow Depth

Station Depth Elevation

Earthquake Activity

City Distance Mag. Time & Date
Minimum magnitude displayed is 2.5.

Coastal Water Temperatures

Place Temperature

Nearby Weather Stations